Main page
METAR-TAF:

METAR-TAF

Airports :

Curaçao, Netherlands Antilles

Curaçao International Airport

latitude: 12-12N, longitude: 068-58W, elevation: 9 m

Current weather observation

The report was made 3 hours and 19 minutes ago, at 13:00 UTC
Wind 15 kt from the East/Southeast
Temperature 28°C
Humidity 74%
Pressure 1015 hPa
Visibility 10 km or more
Broken clouds at a height of 1800 ft

METAR: TNCC 251300Z AUTO 11015KT 9999 BKN018 28/23 Q1015 NOSIG

Time: 12:19 (16:19 UTC)

Forecast

The report was made 6 hours and 19 minutes ago, at 10:00 UTC
Forecast valid from 25 at 12 UTC to 26 at 12 UTC
Wind 14 kt from the East
Visibility 10 km or more
Scattered clouds at a height of 1800 ft
Probability 30% :
Temporary
from 25 at 14 UTC to 25 at 20 UTC
Wind 16 kt from the East with gusts up to 26 kt
Broken clouds at a height of 1500 ft

TAF: TNCC 251000Z 2512/2612 09014KT 9999 SCT018 PROB30 TEMPO 2514/2520 10016G26KT BKN015

Weather observations and forecasts of more than 4000 airports (METAR and TAF reports).

The available stations are represented by yellow and red dots on the map.

Hover mouse over dot to see the name of the station.

Then click to see weather observations and forecasts.

To change the map : click on the green buttons with a black cross to zoom in, on the green button with a dash to zoom out, or on the green arrows for adjacent maps.


METAR-TAF: